createdAt,value
2019-04-05T00:00:18.284Z,28.73
2019-04-05T00:02:47.006Z,24.60
2019-04-05T00:05:16.849Z,26.33
2019-04-05T00:07:45.836Z,31.27
2019-04-05T00:10:15.487Z,33.93
2019-04-05T00:12:44.486Z,24.40
2019-04-05T00:15:15.906Z,28.80
2019-04-05T00:17:44.026Z,27.00
2019-04-05T00:20:13.203Z,27.50
2019-04-05T00:22:42.109Z,36.73
2019-04-05T00:25:11.092Z,23.87
2019-04-05T00:27:40.292Z,23.87
2019-04-05T00:30:09.900Z,25.13
2019-04-05T00:32:39.202Z,26.27
2019-04-05T00:35:08.222Z,25.70
2019-04-05T00:37:37.186Z,25.87
2019-04-05T00:40:06.775Z,26.63
2019-04-05T00:42:35.688Z,24.63
2019-04-05T00:45:05.190Z,30.97
2019-04-05T00:47:33.835Z,25.70
2019-04-05T00:50:03.175Z,29.27
2019-04-05T00:52:31.899Z,29.77
2019-04-05T00:55:00.627Z,30.50
2019-04-05T00:57:29.544Z,28.60
2019-04-05T00:59:59.088Z,26.80
2019-04-05T01:02:28.454Z,31.00
2019-04-05T01:04:57.086Z,27.43
2019-04-05T01:07:25.787Z,24.67
2019-04-05T01:09:55.135Z,25.13
2019-04-05T01:12:25.349Z,27.90
2019-04-05T01:14:55.537Z,31.90
2019-04-05T01:17:25.460Z,25.27
2019-04-05T01:19:55.877Z,26.77
2019-04-05T01:22:27.233Z,29.93
2019-04-05T01:24:56.573Z,29.50
2019-04-05T01:27:25.439Z,25.77
2019-04-05T01:29:54.152Z,32.20
2019-04-05T01:32:23.134Z,25.77
2019-04-05T01:34:51.852Z,27.37
2019-04-05T01:37:20.494Z,26.00
2019-04-05T01:39:49.501Z,27.80
2019-04-05T01:42:18.917Z,28.97
2019-04-05T01:44:47.639Z,30.30
2019-04-05T01:47:16.896Z,26.37
2019-04-05T01:49:45.783Z,32.87
2019-04-05T01:52:14.888Z,28.23
2019-04-05T01:54:43.772Z,28.57
2019-04-05T01:57:12.451Z,26.73
2019-04-05T01:59:41.031Z,27.10
2019-04-05T02:02:10.036Z,28.87
2019-04-05T02:04:39.046Z,31.17
2019-04-05T02:07:07.671Z,28.40
2019-04-05T02:09:37.018Z,26.63
2019-04-05T02:12:06.244Z,27.83
2019-04-05T02:14:35.215Z,26.67
2019-04-05T02:17:04.314Z,30.33
2019-04-05T02:19:33.321Z,31.60
2019-04-05T02:22:02.299Z,32.97
2019-04-05T02:24:31.474Z,26.90
2019-04-05T02:27:01.003Z,33.97
2019-04-05T02:29:30.298Z,30.67
2019-04-05T02:31:59.013Z,34.50
2019-04-05T02:34:27.658Z,31.03
2019-04-05T02:36:56.285Z,30.43
2019-04-05T02:39:25.674Z,25.93
2019-04-05T02:41:54.969Z,28.70
2019-04-05T02:44:24.296Z,30.80
2019-04-05T02:46:54.326Z,28.57
2019-04-05T02:49:24.809Z,35.83
2019-04-05T02:51:54.941Z,32.17
2019-04-05T02:54:23.638Z,29.50
2019-04-05T02:56:52.815Z,34.93
2019-04-05T02:59:21.814Z,28.70
2019-04-05T03:01:51.317Z,29.57
2019-04-05T03:04:19.979Z,32.57
2019-04-05T03:06:50.060Z,31.10
2019-04-05T03:09:18.784Z,32.13
2019-04-05T03:11:48.320Z,28.00
2019-04-05T03:14:17.614Z,32.37
2019-04-05T03:16:48.145Z,32.00
2019-04-05T03:19:20.928Z,28.90
2019-04-05T03:21:53.792Z,31.87
2019-04-05T03:24:25.713Z,30.93
2019-04-05T03:27:01.177Z,34.47
2019-04-05T03:29:30.347Z,28.83
2019-04-05T03:32:00.043Z,35.37
2019-04-05T03:34:29.021Z,27.17
2019-04-05T03:36:58.018Z,30.00
2019-04-05T03:39:27.249Z,33.47
2019-04-05T03:41:56.209Z,29.67
2019-04-05T03:44:25.211Z,33.43
2019-04-05T03:46:57.714Z,34.73
2019-04-05T03:49:26.058Z,29.23
2019-04-05T03:51:55.723Z,31.43
2019-04-05T03:54:24.441Z,30.97
2019-04-05T03:56:53.455Z,29.43
2019-04-05T03:59:22.093Z,31.47
2019-04-05T04:01:50.819Z,36.73
2019-04-05T04:04:19.819Z,36.90
2019-04-05T04:06:48.812Z,29.73
2019-04-05T04:09:17.642Z,31.13
2019-04-05T04:11:46.592Z,36.17
2019-04-05T04:14:15.893Z,32.77
2019-04-05T04:16:45.145Z,32.30
2019-04-05T04:19:13.823Z,33.10
2019-04-05T04:21:50.069Z,40.30
2019-04-05T04:24:19.301Z,34.83
2019-04-05T04:26:48.448Z,36.10
2019-04-05T04:29:17.639Z,39.53
2019-04-05T04:31:46.364Z,34.53
2019-04-05T04:34:15.760Z,35.77
2019-04-05T04:36:44.827Z,36.27
2019-04-05T04:39:13.450Z,33.37
2019-04-05T04:41:42.127Z,33.83
2019-04-05T04:44:11.747Z,31.60
2019-04-05T04:46:41.038Z,33.87
2019-04-05T04:49:10.201Z,31.77
2019-04-05T04:51:39.295Z,34.43
2019-04-05T04:54:08.286Z,34.63
2019-04-05T04:56:36.994Z,33.33
2019-04-05T04:59:05.909Z,37.10
2019-04-05T05:01:34.634Z,35.13
2019-04-05T05:04:03.726Z,32.93
2019-04-05T05:06:32.976Z,34.73
2019-04-05T05:09:02.516Z,34.67
2019-04-05T05:11:31.857Z,35.10
2019-04-05T05:14:00.529Z,33.13
2019-04-05T05:16:29.866Z,33.00
2019-04-05T05:18:58.940Z,38.57
2019-04-05T05:21:27.561Z,32.67
2019-04-05T05:23:56.621Z,33.83
2019-04-05T05:26:25.677Z,38.03
2019-04-05T05:28:55.129Z,36.47
2019-04-05T05:31:24.624Z,34.67
2019-04-05T05:33:53.927Z,36.43
2019-04-05T05:36:22.925Z,32.70
2019-04-05T05:38:51.650Z,35.47
2019-04-05T05:41:20.704Z,37.70
2019-04-05T05:43:50.005Z,36.27
2019-04-05T05:46:19.306Z,39.67
2019-04-05T05:48:48.305Z,31.73
2019-04-05T05:51:17.909Z,41.10
2019-04-05T05:53:46.991Z,33.17
2019-04-05T05:56:16.021Z,34.97
2019-04-05T05:58:44.621Z,36.57
2019-04-05T06:01:13.269Z,33.73
2019-04-05T06:03:41.932Z,39.87
2019-04-05T06:06:10.540Z,37.90
2019-04-05T06:08:39.432Z,35.50
2019-04-05T06:11:08.095Z,41.00
2019-04-05T06:13:37.318Z,35.50
2019-04-05T06:16:06.412Z,38.57
2019-04-05T06:18:35.322Z,34.23
2019-04-05T06:21:04.029Z,38.30
2019-04-05T06:23:34.255Z,39.97
2019-04-05T06:26:03.620Z,32.20
2019-04-05T06:28:32.663Z,32.50
2019-04-05T06:31:01.753Z,33.57
2019-04-05T06:33:31.943Z,37.60
2019-04-05T06:36:01.157Z,33.13
2019-04-05T06:38:30.326Z,36.23
2019-04-05T06:40:59.186Z,39.63
2019-04-05T06:43:28.110Z,40.37
2019-04-05T06:45:56.857Z,39.63
2019-04-05T06:48:28.980Z,36.43
2019-04-05T06:50:56.420Z,39.53
2019-04-05T06:53:25.416Z,36.20
2019-04-05T06:55:54.737Z,37.10
2019-04-05T06:58:28.994Z,37.63
2019-04-05T07:00:57.405Z,32.10
2019-04-05T07:03:25.085Z,36.97
2019-04-05T07:05:53.978Z,35.60
2019-04-05T07:08:23.069Z,37.70
2019-04-05T07:10:51.725Z,36.30
2019-04-05T07:13:20.953Z,36.47
2019-04-05T07:15:50.297Z,32.37
2019-04-05T07:18:31.543Z,31.27
2019-04-05T07:20:49.876Z,32.03
2019-04-05T07:23:18.768Z,35.50
2019-04-05T07:25:47.760Z,33.33
2019-04-05T07:28:16.957Z,31.03
2019-04-05T07:30:45.951Z,31.00
2019-04-05T07:33:14.661Z,33.90
2019-04-05T07:35:43.535Z,31.90
2019-04-05T07:38:12.189Z,30.53
2019-04-05T07:40:41.106Z,39.60
2019-04-05T07:43:09.731Z,30.13
2019-04-05T07:45:38.392Z,30.07
2019-04-05T07:48:07.474Z,35.87
2019-04-05T07:50:36.436Z,32.77
2019-04-05T07:53:05.460Z,35.50
2019-04-05T07:55:34.353Z,33.00
2019-04-05T07:58:03.246Z,33.10
2019-04-05T08:00:48.418Z,32.30
2019-04-05T08:03:17.615Z,31.77
2019-04-05T08:05:47.201Z,31.57
2019-04-05T08:08:24.478Z,34.13
2019-04-05T08:10:53.821Z,32.13
2019-04-05T08:13:24.448Z,31.60
2019-04-05T08:15:53.165Z,32.43
2019-04-05T08:18:21.838Z,29.40
2019-04-05T08:20:50.713Z,32.30
2019-04-05T08:23:19.386Z,30.10
2019-04-05T08:25:48.289Z,33.07
2019-04-05T08:28:17.180Z,30.43
2019-04-05T08:30:45.932Z,31.13
2019-04-05T08:33:14.556Z,31.53
2019-04-05T08:35:43.166Z,26.50
2019-04-05T08:38:11.842Z,32.17
2019-04-05T08:40:40.563Z,30.90
2019-04-05T08:43:09.189Z,30.93
2019-04-05T08:45:38.127Z,31.73
2019-04-05T08:48:06.842Z,28.23
2019-04-05T08:50:35.465Z,33.03
2019-04-05T08:53:04.463Z,32.93
2019-04-05T08:55:33.448Z,31.63
2019-04-05T08:58:02.647Z,32.03
2019-04-05T09:00:31.584Z,34.10
2019-04-05T09:03:00.532Z,37.17
2019-04-05T09:05:29.427Z,28.57
2019-04-05T09:07:58.725Z,32.87
2019-04-05T09:10:27.731Z,38.77
2019-04-05T09:12:56.628Z,32.37
2019-04-05T09:15:25.603Z,41.87
2019-04-05T09:17:54.600Z,34.33
2019-04-05T09:20:23.591Z,28.73
2019-04-05T09:22:52.890Z,28.60
2019-04-05T09:25:21.890Z,31.97
2019-04-05T09:27:51.085Z,29.63
2019-04-05T09:30:19.762Z,32.17
2019-04-05T09:32:49.078Z,26.07
2019-04-05T09:35:17.997Z,29.03
2019-04-05T09:37:46.960Z,29.00
2019-04-05T09:40:15.873Z,29.77
2019-04-05T09:42:44.511Z,32.67
2019-04-05T09:45:13.236Z,30.87
2019-04-05T09:47:42.520Z,27.63
2019-04-05T09:50:11.721Z,27.07
2019-04-05T09:52:40.378Z,28.23
2019-04-05T09:55:09.404Z,30.00
2019-04-05T09:57:38.701Z,31.03
2019-04-05T10:00:11.680Z,30.83
2019-04-05T10:02:40.682Z,30.73
2019-04-05T10:05:09.403Z,30.93
2019-04-05T10:07:48.759Z,33.40
2019-04-05T10:10:09.407Z,30.00
2019-04-05T10:12:38.403Z,29.27
2019-04-05T10:15:07.597Z,30.37
2019-04-05T10:17:36.795Z,30.50
2019-04-05T10:20:06.712Z,31.23
2019-04-05T10:22:35.601Z,33.93
2019-04-05T10:25:04.696Z,36.13
2019-04-05T10:27:33.691Z,28.67
2019-04-05T10:30:02.389Z,27.60
2019-04-05T10:32:30.994Z,27.30
2019-04-05T10:34:59.624Z,31.20
2019-04-05T10:37:28.273Z,30.53
2019-04-05T10:39:57.815Z,29.00
2019-04-05T10:42:33.089Z,31.33
2019-04-05T10:45:01.818Z,30.57
2019-04-05T10:47:30.518Z,29.23
2019-04-05T10:50:03.326Z,29.77
2019-04-05T10:52:30.495Z,28.23
2019-04-05T10:54:59.431Z,29.60
2019-04-05T10:57:28.784Z,30.57
2019-04-05T10:59:57.808Z,27.33
2019-04-05T11:02:26.432Z,26.37
2019-04-05T11:04:55.664Z,28.83
2019-04-05T11:07:24.342Z,30.00
2019-04-05T11:09:53.559Z,28.67
2019-04-05T11:12:22.755Z,24.23
2019-04-05T11:14:51.744Z,24.93
2019-04-05T11:17:20.372Z,28.93
2019-04-05T11:19:49.027Z,28.60
2019-04-05T11:22:20.086Z,27.43
2019-04-05T11:24:48.111Z,26.83
2019-04-05T11:27:17.319Z,24.53
2019-04-05T11:29:46.218Z,27.00
2019-04-05T11:32:15.211Z,26.30
2019-04-05T11:34:44.221Z,28.83
2019-04-05T11:37:13.209Z,26.17
2019-04-05T11:39:42.279Z,27.77
2019-04-05T11:42:11.296Z,24.97
2019-04-05T11:44:41.816Z,26.83
2019-04-05T11:47:10.811Z,24.27
2019-04-05T11:49:41.045Z,22.73
2019-04-05T11:52:09.708Z,25.83
2019-04-05T11:54:38.698Z,25.47
2019-04-05T11:57:07.610Z,24.30
2019-04-05T11:59:36.291Z,27.90
2019-04-05T12:02:24.439Z,23.23
2019-04-05T12:04:54.396Z,25.23
2019-04-05T12:07:26.256Z,24.90
2019-04-05T12:09:53.975Z,25.57
2019-04-05T12:12:25.496Z,27.20
2019-04-05T12:14:53.412Z,21.83
2019-04-05T12:17:22.361Z,25.70
2019-04-05T12:19:50.991Z,28.93
2019-04-05T12:22:20.187Z,23.63
2019-04-05T12:24:48.931Z,27.47
2019-04-05T12:27:20.595Z,23.03
2019-04-05T12:29:48.691Z,24.37
2019-04-05T12:32:18.992Z,26.20
2019-04-05T12:34:49.493Z,24.40
2019-04-05T12:37:21.832Z,25.97
2019-04-05T12:39:49.887Z,23.07
2019-04-05T12:42:18.547Z,24.27
2019-04-05T12:44:47.162Z,25.57
2019-04-05T12:47:16.299Z,29.10
2019-04-05T12:49:45.502Z,27.53
2019-04-05T12:52:22.611Z,26.23
2019-04-05T12:54:45.896Z,27.17
2019-04-05T12:57:15.197Z,25.13
2019-04-05T12:59:44.091Z,27.03
2019-04-05T13:02:15.489Z,27.63
2019-04-05T13:04:43.716Z,24.87
2019-04-05T13:07:12.700Z,24.40
2019-04-05T13:09:41.370Z,28.13
2019-04-05T13:12:10.597Z,25.77
2019-04-05T13:14:39.488Z,24.43
2019-04-05T13:17:08.690Z,30.13
2019-04-05T13:19:37.988Z,22.80
2019-04-05T13:22:06.745Z,31.80
2019-04-05T13:24:35.353Z,23.80
2019-04-05T13:27:04.179Z,23.77
2019-04-05T13:29:33.217Z,23.87
2019-04-05T13:32:03.351Z,22.80
2019-04-05T13:34:35.130Z,18.87
2019-04-05T13:37:04.120Z,22.27
2019-04-05T13:39:33.007Z,20.20
2019-04-05T13:42:02.486Z,19.43
2019-04-05T13:44:31.940Z,16.90
2019-04-05T13:47:01.422Z,19.93
2019-04-05T13:49:30.735Z,19.57
2019-04-05T13:51:59.643Z,20.97
2019-04-05T13:54:29.222Z,22.20
2019-04-05T13:56:57.861Z,18.30
2019-04-05T13:59:26.454Z,19.27
2019-04-05T14:02:05.645Z,19.50
2019-04-05T14:04:26.326Z,20.90
2019-04-05T14:06:55.333Z,22.70
2019-04-05T14:09:23.976Z,21.37
2019-04-05T14:11:52.903Z,20.37
2019-04-05T14:14:21.500Z,21.20
2019-04-05T14:16:50.602Z,24.37
2019-04-05T14:19:19.783Z,24.07
2019-04-05T14:21:52.803Z,23.30
2019-04-05T14:24:21.482Z,24.87
2019-04-05T14:26:50.115Z,24.73
2019-04-05T14:29:19.100Z,27.20
2019-04-05T14:31:47.989Z,28.20
2019-04-05T14:34:17.219Z,24.70
2019-04-05T14:36:46.212Z,25.23
2019-04-05T14:39:15.105Z,24.67
2019-04-05T14:41:44.403Z,23.63
2019-04-05T14:44:14.773Z,25.50
2019-04-05T14:46:44.342Z,23.87
2019-04-05T14:49:13.350Z,31.57
2019-04-05T14:51:52.414Z,29.17
2019-04-05T14:54:13.473Z,27.97
2019-04-05T14:56:42.672Z,27.77
2019-04-05T14:59:11.330Z,24.50
2019-04-05T15:01:40.246Z,25.07
2019-04-05T15:04:11.815Z,26.97
2019-04-05T15:06:39.668Z,23.97
2019-04-05T15:09:08.300Z,25.03
2019-04-05T15:11:37.384Z,25.30
2019-04-05T15:14:06.130Z,25.73
2019-04-05T15:16:34.908Z,24.97
2019-04-05T15:19:03.834Z,27.60
2019-04-05T15:21:34.708Z,26.93
2019-04-05T15:24:03.443Z,24.97
2019-04-05T15:26:32.430Z,25.70
2019-04-05T15:29:01.339Z,29.03
2019-04-05T15:31:30.321Z,25.40
2019-04-05T15:34:01.748Z,27.30
2019-04-05T15:36:31.577Z,24.93
2019-04-05T15:39:01.961Z,25.40
2019-04-05T15:41:31.424Z,27.57
2019-04-05T15:44:00.082Z,24.43
2019-04-05T15:46:29.004Z,25.80
2019-04-05T15:48:57.660Z,24.33
2019-04-05T15:51:26.351Z,24.60
2019-04-05T15:53:55.265Z,26.23
2019-04-05T15:56:24.561Z,27.40
2019-04-05T15:58:53.762Z,26.63
2019-04-05T16:01:22.401Z,25.27
2019-04-05T16:03:51.042Z,29.03
2019-04-05T16:06:19.681Z,31.07
2019-04-05T16:08:48.714Z,25.37
2019-04-05T16:11:17.423Z,25.87
2019-04-05T16:13:46.053Z,28.87
2019-04-05T16:16:14.976Z,31.80
2019-04-05T16:18:43.638Z,29.33
2019-04-05T16:21:12.554Z,27.97
2019-04-05T16:23:41.228Z,25.60
2019-04-05T16:26:09.964Z,24.87
2019-04-05T16:28:41.037Z,25.87
2019-04-05T16:31:09.653Z,25.37
2019-04-05T16:33:38.299Z,25.27
2019-04-05T16:36:06.932Z,26.43
2019-04-05T16:38:35.918Z,27.07
2019-04-05T16:41:04.619Z,26.07
2019-04-05T16:43:33.603Z,28.90
2019-04-05T16:46:02.491Z,27.37
2019-04-05T16:48:31.391Z,31.37
2019-04-05T16:51:00.291Z,30.07
2019-04-05T16:53:29.370Z,34.10
2019-04-05T16:55:58.013Z,31.27
2019-04-05T16:58:26.676Z,31.63
2019-04-05T17:00:58.707Z,38.27
2019-04-05T17:03:27.369Z,34.47
2019-04-05T17:05:56.287Z,36.90
2019-04-05T17:08:24.898Z,33.57
2019-04-05T17:10:53.532Z,32.13
2019-04-05T17:13:22.814Z,33.53
2019-04-05T17:15:51.738Z,33.73
2019-04-05T17:18:20.392Z,34.20
2019-04-05T17:20:49.324Z,30.07
2019-04-05T17:23:18.325Z,36.30
2019-04-05T17:25:47.209Z,33.03
2019-04-05T17:28:16.207Z,35.20
2019-04-05T17:30:44.842Z,31.27
2019-04-05T17:33:14.089Z,34.10
2019-04-05T17:35:43.328Z,32.37
2019-04-05T17:38:13.414Z,34.67
2019-04-05T17:40:43.631Z,37.53
2019-04-05T17:43:12.626Z,36.47
2019-04-05T17:45:41.428Z,31.87
2019-04-05T17:48:10.074Z,34.43
2019-04-05T17:50:38.995Z,34.10
2019-04-05T17:53:12.751Z,39.50
2019-04-05T17:55:38.724Z,32.77
2019-04-05T17:58:07.791Z,41.53
2019-04-05T18:00:37.252Z,33.67
2019-04-05T18:03:05.969Z,36.10
2019-04-05T18:05:34.875Z,37.53
2019-04-05T18:08:03.788Z,36.97
2019-04-05T18:10:32.683Z,37.40
2019-04-05T18:13:01.574Z,38.90
2019-04-05T18:15:30.568Z,38.93
2019-04-05T18:17:59.869Z,40.73
2019-04-05T18:20:28.510Z,40.63
2019-04-05T18:22:57.436Z,37.57
2019-04-05T18:25:26.342Z,37.83
2019-04-05T18:27:55.240Z,37.20
2019-04-05T18:30:23.863Z,38.77
2019-04-05T18:32:53.114Z,42.20
2019-04-05T18:35:22.009Z,36.93
2019-04-05T18:37:50.617Z,37.13
2019-04-05T18:40:19.287Z,39.67
2019-04-05T18:42:47.918Z,39.00
2019-04-05T18:45:16.872Z,39.17
2019-04-05T18:47:45.533Z,36.23
2019-04-05T18:50:14.845Z,36.87
2019-04-05T18:52:43.501Z,39.57
2019-04-05T18:55:12.194Z,37.97
2019-04-05T18:57:41.133Z,39.83
2019-04-05T19:00:10.209Z,39.20
2019-04-05T19:02:38.843Z,42.50
2019-04-05T19:05:07.779Z,39.43
2019-04-05T19:07:36.778Z,41.57
2019-04-05T19:10:06.381Z,39.43
2019-04-05T19:12:35.630Z,37.03
2019-04-05T19:15:04.646Z,40.63
2019-04-05T19:17:33.266Z,43.57
2019-04-05T19:20:02.457Z,41.30
2019-04-05T19:22:31.348Z,44.97
2019-04-05T19:25:00.341Z,39.33
2019-04-05T19:27:29.270Z,39.80
2019-04-05T19:29:58.432Z,44.40
2019-04-05T19:50:02.610Z,49.43
2019-04-05T19:52:31.564Z,44.70
2019-04-05T19:55:00.200Z,43.83
2019-04-05T19:57:29.464Z,45.33
2019-04-05T19:59:58.263Z,48.70
2019-04-05T20:02:27.230Z,48.87
2019-04-05T20:04:55.849Z,47.40
2019-04-05T20:07:24.495Z,45.90
2019-04-05T20:09:54.110Z,46.97
2019-04-05T20:12:22.747Z,49.50
2019-04-05T20:14:52.002Z,48.63
2019-04-05T20:17:20.986Z,52.90
2019-04-05T20:19:49.853Z,50.13
2019-04-05T20:22:18.776Z,58.50
2019-04-05T20:24:47.421Z,56.00
2019-04-05T20:27:16.658Z,62.40
2019-04-05T20:29:46.464Z,65.27
2019-04-05T20:32:15.123Z,68.43
2019-04-05T20:34:43.781Z,67.90
2019-04-05T20:37:12.425Z,79.77
2019-04-05T20:39:41.730Z,85.77
2019-04-05T20:42:10.623Z,89.50
2019-04-05T20:44:39.619Z,87.93
2019-04-05T20:47:08.256Z,86.80
2019-04-05T20:49:36.893Z,95.60
2019-04-05T20:52:05.877Z,93.50
2019-04-05T20:54:35.120Z,94.93
2019-04-05T20:57:03.785Z,96.90
2019-04-05T20:59:32.961Z,97.07
2019-04-05T21:02:01.635Z,96.33
2019-04-05T21:04:30.644Z,98.30
2019-04-05T21:06:59.635Z,93.87
2019-04-05T21:09:29.045Z,102.60
2019-04-05T21:11:58.009Z,93.23
2019-04-05T21:14:27.240Z,91.87
2019-04-05T21:16:56.121Z,89.40
2019-04-05T21:19:25.012Z,89.70
2019-04-05T21:21:54.016Z,96.23
2019-04-05T21:24:23.514Z,94.37
2019-04-05T21:26:52.127Z,91.10
2019-04-05T21:29:21.091Z,93.20
2019-04-05T21:31:50.186Z,95.77
2019-04-05T21:34:19.076Z,96.57
2019-04-05T21:36:47.976Z,94.70
2019-04-05T21:39:16.863Z,108.53
2019-04-05T21:41:45.725Z,101.00
2019-04-05T21:44:14.955Z,99.20
2019-04-05T21:46:43.951Z,100.80
2019-04-05T21:49:13.146Z,97.70
2019-04-05T21:51:41.769Z,94.37
2019-04-05T21:54:10.431Z,89.70
2019-04-05T21:56:39.066Z,98.10
2019-04-05T21:59:08.301Z,93.80
2019-04-05T22:01:37.434Z,97.30
2019-04-05T22:04:06.389Z,92.33
2019-04-05T22:06:35.268Z,99.17
2019-04-05T22:09:07.820Z,104.57
2019-04-05T22:11:36.471Z,102.43
2019-04-05T22:14:05.193Z,92.40
2019-04-05T22:16:33.857Z,89.37
2019-04-05T22:19:02.810Z,85.77
2019-04-05T22:21:31.705Z,86.00
2019-04-05T22:24:00.697Z,78.90
2019-04-05T22:26:29.319Z,73.47
2019-04-05T22:28:58.265Z,68.27
2019-04-05T22:31:27.572Z,72.50
2019-04-05T22:33:56.218Z,62.47
2019-04-05T22:36:25.735Z,61.43
2019-04-05T22:38:54.658Z,63.53
2019-04-05T22:41:23.858Z,67.07
2019-04-05T22:43:52.749Z,68.93
2019-04-05T22:46:21.679Z,70.83
2019-04-05T22:48:50.942Z,69.37
2019-04-05T22:51:19.835Z,73.83
2019-04-05T22:53:48.758Z,74.30
2019-04-05T22:56:17.731Z,75.03
2019-04-05T22:58:46.628Z,72.17
2019-04-05T23:01:15.285Z,69.77
2019-04-05T23:03:43.892Z,66.90
2019-04-05T23:06:13.193Z,63.17
2019-04-05T23:08:41.797Z,63.40
2019-04-05T23:11:10.761Z,65.27
2019-04-05T23:13:40.063Z,64.93
2019-04-05T23:16:08.802Z,63.03
2019-04-05T23:18:37.736Z,67.27
2019-04-05T23:21:06.820Z,70.43
2019-04-05T23:23:35.717Z,73.73
2019-04-05T23:26:04.720Z,71.57
2019-04-05T23:28:33.763Z,68.83
2019-04-05T23:31:02.706Z,72.57
2019-04-05T23:33:31.599Z,80.47
2019-04-05T23:36:00.227Z,75.60
2019-04-05T23:38:29.639Z,73.53
2019-04-05T23:40:58.577Z,67.63
2019-04-05T23:43:27.211Z,69.60
2019-04-05T23:45:56.470Z,69.73
2019-04-05T23:48:25.459Z,74.73
2019-04-05T23:50:54.767Z,88.63
2019-04-05T23:53:23.968Z,99.40
2019-04-05T23:55:52.574Z,95.37
2019-04-05T23:58:21.220Z,97.03
